Time;durP1;ratioP1;P1;durP2;ratioP2;P2;SDS_P1;SDS_P2;PMS_P1;PMS_P2;Temp;Humidity;BMP_temperature;BMP_pressure;BME280_temperature;BME280_humidity;BME280_pressure;Samples;Min_cycle;Max_cycle;Signal;HPM_P1;HPM_P2
2021/05/06 00:34:24;;;;;;;1.45;0.82;;;21.40;50.70;;;;;;5005098;28;20034;-43
2021/05/06 00:36:50;;;;;;;0.60;0.60;;;21.40;51.50;;;;;;4992576;28;20048;-43
2021/05/06 00:39:21;;;;;;;0.60;0.60;;;21.30;51.20;;;;;;5032863;28;20049;-43
2021/05/06 00:42:03;;;;;;;1.17;0.70;;;21.30;50.90;;;;;;5046848;28;20547;-46
2021/05/06 00:45:14;;;;;;;0.60;0.60;;;21.40;50.80;;;;;;5046860;28;20083;-41
2021/05/06 00:56:43;;;;;;;1.02;0.60;;;21.30;51.00;;;;;;5048500;28;20037;-44
2021/05/06 01:06:27;;;;;;;0.57;0.57;;;21.30;51.10;;;;;;5048864;28;20098;-45
2021/05/06 01:08:57;;;;;;;0.95;0.60;;;21.30;51.00;;;;;;5031258;28;20591;-43
2021/05/06 01:11:31;;;;;;;0.77;0.77;;;21.20;51.10;;;;;;5047684;28;20040;-45
2021/05/06 01:14:04;;;;;;;0.52;0.50;;;21.30;51.00;;;;;;5033038;28;20036;-45
2021/05/06 01:16:29;;;;;;;0.50;0.50;;;21.40;50.80;;;;;;5046994;28;20037;-45
2021/05/06 01:18:55;;;;;;;0.50;0.50;;;21.30;50.90;;;;;;5047301;28;20035;-45
2021/05/06 01:21:21;;;;;;;0.70;0.70;;;21.30;51.00;;;;;;5047303;28;20032;-45
2021/05/06 01:23:46;;;;;;;1.35;0.60;;;21.40;50.70;;;;;;5047916;28;20033;-47
2021/05/06 01:26:15;;;;;;;0.80;0.70;;;21.30;50.90;;;;;;5030987;28;20068;-42
2021/05/06 01:28:44;;;;;;;0.60;0.60;;;21.30;50.90;;;;;;5031554;28;20039;-42
2021/05/06 01:31:15;;;;;;;0.68;0.50;;;21.20;51.00;;;;;;5109388;28;20071;-43
2021/05/06 01:33:46;;;;;;;0.55;0.50;;;21.40;50.70;;;;;;5106326;28;20030;-42
2021/05/06 01:36:18;;;;;;;0.55;0.55;;;21.40;50.70;;;;;;5106172;28;20552;-43
2021/05/06 01:44:12;;;;;;;0.50;0.50;;;21.30;50.80;;;;;;5087811;28;20139;-44
2021/05/06 01:59:58;;;;;;;0.60;0.50;;;21.20;51.00;;;;;;5090571;28;20021;-44
2021/05/06 02:02:23;;;;;;;0.43;0.43;;;21.30;50.90;;;;;;5091863;28;20107;-42
2021/05/06 02:04:49;;;;;;;0.60;0.50;;;21.20;51.00;;;;;;5090438;28;20140;-45
2021/05/06 02:07:15;;;;;;;0.65;0.50;;;21.30;51.10;;;;;;5091676;28;20024;-42
2021/05/06 02:09:40;;;;;;;0.50;0.40;;;21.20;51.00;;;;;;5091852;28;20122;-40
2021/05/06 02:12:09;;;;;;;0.50;0.40;;;21.30;50.80;;;;;;5090147;28;20028;-40
2021/05/06 02:14:34;;;;;;;0.60;0.60;;;21.40;50.70;;;;;;5092030;28;20126;-42
2021/05/06 02:17:00;;;;;;;0.43;0.43;;;21.30;50.80;;;;;;5090772;28;20110;-42
2021/05/06 02:19:30;;;;;;;0.55;0.50;;;21.40;50.60;;;;;;5090530;28;20028;-38
2021/05/06 02:21:56;;;;;;;0.60;0.60;;;21.50;50.50;;;;;;5119387;27;20039;-43
2021/05/06 02:24:21;;;;;;;0.47;0.40;;;21.50;50.40;;;;;;5128989;27;20042;-43
2021/05/06 02:26:47;;;;;;;0.50;0.50;;;21.50;50.20;;;;;;5130879;27;20015;-48
2021/05/06 02:29:13;;;;;;;0.45;0.45;;;21.60;50.90;;;;;;5131101;27;20031;-42
2021/05/06 02:31:38;;;;;;;0.82;0.82;;;21.50;50.30;;;;;;5114861;27;20427;-42
2021/05/06 02:34:04;;;;;;;0.52;0.50;;;21.50;50.40;;;;;;5130317;27;20045;-42
2021/05/06 02:36:29;;;;;;;0.40;0.40;;;21.50;50.50;;;;;;5129089;27;20027;-43
2021/05/06 02:38:55;;;;;;;0.38;0.38;;;21.40;50.50;;;;;;5130836;27;20103;-40
2021/05/06 02:41:20;;;;;;;0.40;0.40;;;21.40;50.50;;;;;;5131049;27;20026;-42
2021/05/06 02:43:46;;;;;;;0.60;0.60;;;21.40;50.70;;;;;;5132003;27;20030;-42
2021/05/06 02:46:11;;;;;;;0.68;0.57;;;21.40;50.60;;;;;;5131268;27;20095;-42
2021/05/06 02:48:37;;;;;;;1.25;0.60;;;21.40;50.70;;;;;;5128922;27;20023;-42
2021/05/06 02:51:04;;;;;;;0.50;0.50;;;21.30;50.80;;;;;;5129967;27;20493;-40
2021/05/06 02:53:35;;;;;;;0.73;0.60;;;21.40;50.70;;;;;;5130227;27;20643;-43
2021/05/06 03:03:47;;;;;;;0.38;0.38;;;21.40;51.30;;;;;;5130255;27;20511;-42
2021/05/06 03:06:18;;;;;;;0.40;0.40;;;21.40;50.50;;;;;;5128811;27;20054;-44
2021/05/06 03:08:46;;;;;;;0.65;0.50;;;21.40;50.50;;;;;;5114319;27;20076;-41
2021/05/06 03:22:48;;;;;;;0.40;0.40;;;21.40;51.20;;;;;;5015692;28;20045;-40
2021/05/06 03:25:16;;;;;;;0.70;0.70;;;21.40;50.60;;;;;;5012199;28;20033;-41
2021/05/06 03:35:28;;;;;;;0.30;0.30;;;21.30;50.50;;;;;;5026119;28;20049;-42
2021/05/06 04:15:27;;;;;;;0.20;0.20;;;21.20;50.80;;;;;;5127776;27;20753;-42
2021/05/06 04:25:54;;;;;;;0.32;0.32;;;21.20;50.90;;;;;;5126782;27;20038;-43
2021/05/06 04:36:18;;;;;;;0.20;0.20;;;21.20;50.60;;;;;;5127283;27;20088;-38
2021/05/06 04:38:44;;;;;;;0.32;0.32;;;21.20;50.70;;;;;;5127191;27;20066;-42
2021/05/06 04:54:47;;;;;;;0.30;0.30;;;21.30;50.70;;;;;;5124737;27;20531;-43
2021/05/06 05:04:58;;;;;;;;;;;21.20;50.80;;;;;;5123522;28;20047;-41
2021/05/06 05:07:36;;;;;;;0.40;0.40;;;21.20;50.80;;;;;;5102770;28;19907;-41
2021/05/06 05:10:13;;;;;;;0.30;0.25;;;21.10;50.90;;;;;;5121694;28;20127;-40
2021/05/06 05:25:47;;;;;;;0.35;0.35;;;20.60;52.70;;;;;;5132326;27;20477;-40
2021/05/06 05:28:13;;;;;;;2.83;0.30;;;20.50;53.50;;;;;;5106124;27;20080;-43
2021/05/06 05:30:40;;;;;;;0.55;0.40;;;20.60;53.20;;;;;;5107950;27;20031;-41
2021/05/06 05:33:15;;;;;;;0.65;0.30;;;20.70;52.60;;;;;;5127001;27;20027;-41
2021/05/06 05:36:09;;;;;;;0.30;0.30;;;20.70;52.40;;;;;;5134039;27;20034;-41
2021/05/06 05:38:36;;;;;;;1.13;0.32;;;20.80;52.50;;;;;;5107101;27;20401;-39
2021/05/06 05:57:01;;;;;;;0.55;0.40;;;20.80;52.40;;;;;;5130169;27;20066;-42
2021/05/06 05:59:26;;;;;;;0.73;0.40;;;20.80;52.90;;;;;;5124616;27;20015;-43
2021/05/06 06:01:52;;;;;;;0.20;0.17;;;20.90;53.00;;;;;;5116204;27;20644;-43
2021/05/06 06:04:17;;;;;;;0.40;0.32;;;20.90;52.20;;;;;;5119036;27;20023;-43
2021/05/06 06:06:43;;;;;;;3.40;0.30;;;20.90;52.20;;;;;;5122956;27;20787;-42
2021/05/06 06:09:09;;;;;;;0.20;0.20;;;20.90;52.20;;;;;;5124499;27;20035;-43
2021/05/06 06:11:36;;;;;;;1.07;0.50;;;20.90;52.20;;;;;;4761258;27;10000158;-44
2021/05/06 06:14:07;;;;;;;2.25;0.47;;;21.00;52.20;;;;;;5113904;27;20554;-45
2021/05/06 06:16:33;;;;;;;0.85;0.60;;;21.00;52.20;;;;;;5118048;27;20023;-42
2021/05/06 06:19:00;;;;;;;0.40;0.38;;;21.00;52.10;;;;;;5124496;27;20032;-43
2021/05/06 06:21:49;;;;;;;1.17;0.50;;;20.90;52.00;;;;;;5119576;27;20027;-44
2021/05/06 06:24:14;;;;;;;2.20;0.40;;;20.90;52.00;;;;;;5123308;27;20054;-44
2021/05/06 06:26:40;;;;;;;2.70;0.50;;;21.00;52.10;;;;;;5127316;27;20074;-44
2021/05/06 06:29:08;;;;;;;0.70;0.40;;;21.00;52.10;;;;;;5129651;27;20548;-44
2021/05/06 06:31:46;;;;;;;1.77;0.47;;;21.10;51.90;;;;;;5105917;27;20497;-47
2021/05/06 06:34:11;;;;;;;0.57;0.35;;;21.10;52.30;;;;;;5110561;27;20043;-47
2021/05/06 06:36:44;;;;;;;0.57;0.43;;;21.10;51.90;;;;;;5113749;27;20374;-45
2021/05/06 06:39:11;;;;;;;0.80;0.40;;;21.10;53.30;;;;;;5103239;27;20054;-43
2021/05/06 06:41:37;;;;;;;2.33;0.70;;;21.00;53.00;;;;;;5117731;27;20393;-45
2021/05/06 06:44:03;;;;;;;1.30;0.50;;;21.00;52.70;;;;;;5119067;27;20038;-45
2021/05/06 06:46:28;;;;;;;3.08;0.47;;;21.00;52.80;;;;;;5116315;27;20055;-42
2021/05/06 06:48:54;;;;;;;0.30;0.30;;;21.10;52.50;;;;;;5118581;27;20457;-47
2021/05/06 06:51:20;;;;;;;1.10;0.30;;;21.10;52.20;;;;;;5083348;27;20043;-44
2021/05/06 06:53:45;;;;;;;1.55;0.38;;;21.10;52.00;;;;;;5097206;28;20370;-46
2021/05/06 06:56:11;;;;;;;1.92;0.30;;;21.10;52.00;;;;;;5118943;27;20024;-43
2021/05/06 06:58:40;;;;;;;2.10;0.38;;;21.10;51.80;;;;;;5119047;27;20031;-45
2021/05/06 07:01:07;;;;;;;0.35;0.30;;;21.10;51.70;;;;;;5102921;27;20055;-48
2021/05/06 07:03:33;;;;;;;0.60;0.60;;;21.20;51.70;;;;;;5116645;27;20078;-45
2021/05/06 07:05:59;;;;;;;0.98;0.43;;;20.80;52.30;;;;;;5120806;27;20067;-45
2021/05/06 07:08:31;;;;;;;1.75;0.57;;;20.80;52.40;;;;;;5115686;27;20055;-45
2021/05/06 07:10:58;;;;;;;0.50;0.40;;;20.80;52.20;;;;;;5115194;27;20465;-45
2021/05/06 07:13:24;;;;;;;0.52;0.30;;;20.90;52.00;;;;;;5116579;27;20099;-43
2021/05/06 07:15:54;;;;;;;0.40;0.30;;;20.90;52.70;;;;;;5088851;28;20114;-45
2021/05/06 07:18:20;;;;;;;1.50;0.40;;;20.90;52.60;;;;;;5101685;27;20023;-43
2021/05/06 07:20:46;;;;;;;0.30;0.30;;;20.90;52.70;;;;;;5083954;27;20445;-42
2021/05/06 07:23:12;;;;;;;1.20;0.63;;;20.60;52.60;;;;;;5098777;27;20027;-43
2021/05/06 07:25:38;;;;;;;0.77;0.40;;;20.60;53.20;;;;;;5115535;27;20036;-44
2021/05/06 07:28:11;;;;;;;0.65;0.40;;;20.70;52.90;;;;;;5116990;27;20097;-43
2021/05/06 07:30:37;;;;;;;0.30;0.30;;;20.80;52.80;;;;;;5122445;27;20076;-44
2021/05/06 07:33:03;;;;;;;0.38;0.30;;;20.70;52.70;;;;;;5113673;27;20027;-43
2021/05/06 07:35:29;;;;;;;1.40;0.50;;;20.80;53.30;;;;;;5113711;27;20024;-45
2021/05/06 07:37:55;;;;;;;1.40;0.20;;;20.70;53.10;;;;;;5113610;27;20066;-42
2021/05/06 07:40:21;;;;;;;1.65;0.35;;;20.80;52.30;;;;;;5115286;27;20409;-46
2021/05/06 07:42:46;;;;;;;0.98;0.40;;;20.90;53.10;;;;;;5113431;27;20030;-42
2021/05/06 07:45:12;;;;;;;0.75;0.32;;;20.70;52.90;;;;;;5100499;27;20505;-44
2021/05/06 07:47:38;;;;;;;0.52;0.35;;;20.60;53.30;;;;;;5101303;27;20062;-46
2021/05/06 07:50:04;;;;;;;0.55;0.50;;;20.50;53.50;;;;;;5112863;27;20027;-46
2021/05/06 07:52:29;;;;;;;1.40;0.30;;;20.40;53.50;;;;;;5104387;27;20126;-43
2021/05/06 07:54:56;;;;;;;0.77;0.40;;;20.40;53.60;;;;;;5111750;27;20092;-47
2021/05/06 07:57:22;;;;;;;5.28;0.45;;;20.50;53.70;;;;;;5119915;27;20339;-44
2021/05/06 07:59:48;;;;;;;1.05;0.40;;;20.40;53.60;;;;;;5095652;28;20477;-44
2021/05/06 08:02:15;;;;;;;1.45;0.30;;;20.40;53.80;;;;;;5107379;27;20063;-45
2021/05/06 08:04:41;;;;;;;1.75;0.40;;;20.40;53.90;;;;;;5123847;27;20149;-44
2021/05/06 08:07:06;;;;;;;1.50;0.30;;;20.60;53.60;;;;;;5120966;27;20102;-43
2021/05/06 08:09:32;;;;;;;0.30;0.25;;;20.70;53.10;;;;;;5118067;27;20049;-43
2021/05/06 08:12:02;;;;;;;0.40;0.40;;;20.80;52.80;;;;;;5114874;27;20097;-44
2021/05/06 08:14:27;;;;;;;0.77;0.28;;;20.60;53.30;;;;;;5118426;27;20028;-45
2021/05/06 08:16:53;;;;;;;0.63;0.30;;;20.50;53.50;;;;;;5099172;27;20534;-46
2021/05/06 08:19:19;;;;;;;0.63;0.28;;;20.50;53.70;;;;;;5102755;27;20026;-43
2021/05/06 08:21:45;;;;;;;1.88;0.40;;;20.40;53.70;;;;;;5100344;27;20170;-42
2021/05/06 08:24:11;;;;;;;0.40;0.30;;;20.50;53.90;;;;;;5117581;27;20033;-46
2021/05/06 08:26:37;;;;;;;1.75;0.52;;;20.60;53.30;;;;;;5116952;27;20402;-45
2021/05/06 08:29:03;;;;;;;1.55;0.40;;;20.60;53.50;;;;;;5115678;27;20043;-45
2021/05/06 08:31:29;;;;;;;1.10;0.40;;;20.50;53.80;;;;;;5116357;27;20051;-45
2021/05/06 08:33:55;;;;;;;0.65;0.35;;;20.70;53.30;;;;;;5117345;27;20024;-45
2021/05/06 08:36:20;;;;;;;3.10;0.50;;;20.60;53.30;;;;;;5103452;27;20511;-46
2021/05/06 08:38:46;;;;;;;0.43;0.30;;;20.60;53.70;;;;;;5119427;27;20039;-45
2021/05/06 08:41:13;;;;;;;0.43;0.30;;;20.50;53.90;;;;;;5115763;27;20484;-45
2021/05/06 08:43:40;;;;;;;3.63;0.30;;;20.50;54.00;;;;;;5100241;27;20034;-44
2021/05/06 08:46:06;;;;;;;0.70;0.30;;;20.50;54.50;;;;;;5082727;28;20031;-44
2021/05/06 08:48:32;;;;;;;0.75;0.30;;;20.50;53.90;;;;;;5096959;28;20100;-44
2021/05/06 08:50:58;;;;;;;1.92;0.32;;;20.50;54.00;;;;;;5114203;27;20038;-42
2021/05/06 08:53:24;;;;;;;1.75;0.47;;;20.60;53.80;;;;;;5117939;27;20011;-42
2021/05/06 08:55:52;;;;;;;0.70;0.30;;;20.70;53.30;;;;;;5115966;27;20102;-43
2021/05/06 08:58:18;;;;;;;1.35;0.32;;;20.70;54.20;;;;;;5111400;27;20115;-45
2021/05/06 09:00:43;;;;;;;0.63;0.50;;;20.60;53.80;;;;;;5118600;28;20575;-44
2021/05/06 09:03:10;;;;;;;0.43;0.30;;;20.60;53.90;;;;;;5118079;28;20113;-43
2021/05/06 09:05:36;;;;;;;0.35;0.20;;;20.60;53.90;;;;;;5103885;28;20138;-42
2021/05/06 09:08:02;;;;;;;0.63;0.30;;;20.60;54.00;;;;;;5095862;28;20540;-43
2021/05/06 09:10:36;;;;;;;0.80;0.40;;;20.60;54.00;;;;;;5101146;28;20045;-45
2021/05/06 09:13:02;;;;;;;0.52;0.30;;;20.70;53.80;;;;;;5092203;28;20015;-43
2021/05/06 09:15:28;;;;;;;0.40;0.40;;;20.70;53.70;;;;;;5118515;28;20055;-42
2021/05/06 09:17:53;;;;;;;0.40;0.30;;;20.60;53.90;;;;;;5120231;28;20452;-43
2021/05/06 09:20:24;;;;;;;1.00;0.60;;;20.60;54.10;;;;;;5115206;28;20072;-43
2021/05/06 09:22:57;;;;;;;0.35;0.30;;;20.60;54.10;;;;;;5112711;28;20103;-43
2021/05/06 09:25:27;;;;;;;0.40;0.40;;;20.60;54.10;;;;;;5110291;28;20027;-44
2021/05/06 09:28:15;;;;;;;0.40;0.20;;;20.60;54.00;;;;;;5117874;28;20024;-45
2021/05/06 09:30:55;;;;;;;1.48;0.50;;;20.60;53.90;;;;;;5103500;28;20026;-45
2021/05/06 09:33:33;;;;;;;0.30;0.30;;;20.60;54.30;;;;;;5116521;28;20040;-42
2021/05/06 09:36:15;;;;;;;0.63;0.40;;;20.80;54.10;;;;;;5112554;28;20055;-45
2021/05/06 09:38:47;;;;;;;0.40;0.30;;;20.80;54.20;;;;;;5094901;28;20050;-44
2021/05/06 09:41:16;;;;;;;0.50;0.40;;;20.80;53.80;;;;;;5097748;28;20461;-45
2021/05/06 09:43:42;;;;;;;0.50;0.30;;;20.80;54.40;;;;;;5074395;28;20498;-46
2021/05/06 09:46:31;;;;;;;0.30;0.20;;;20.70;54.00;;;;;;5059335;28;20033;-44
2021/05/06 09:49:01;;;;;;;0.35;0.30;;;20.70;54.10;;;;;;5038231;28;20032;-47
2021/05/06 09:51:41;;;;;;;0.68;0.43;;;20.70;54.10;;;;;;5055528;28;20090;-41
2021/05/06 09:54:18;;;;;;;0.40;0.30;;;20.60;54.10;;;;;;5058548;28;20025;-42
2021/05/06 09:56:44;;;;;;;0.98;0.40;;;20.70;54.20;;;;;;5060754;28;20063;-42
2021/05/06 09:59:10;;;;;;;2.58;0.40;;;20.70;54.10;;;;;;5053622;28;20037;-45
2021/05/06 10:01:38;;;;;;;0.75;0.30;;;20.70;54.20;;;;;;5062180;28;20556;-44
2021/05/06 10:04:18;;;;;;;5.30;0.40;;;20.70;54.00;;;;;;5058930;28;20029;-44
2021/05/06 10:07:03;;;;;;;0.90;0.50;;;20.70;54.30;;;;;;5041384;28;20048;-44
2021/05/06 10:09:30;;;;;;;0.43;0.32;;;20.70;54.10;;;;;;5041359;28;20125;-40
2021/05/06 10:11:56;;;;;;;2.92;0.50;;;20.70;54.10;;;;;;5047642;28;20023;-43
2021/05/06 10:14:22;;;;;;;1.60;0.50;;;20.70;54.30;;;;;;5041477;28;20036;-43
2021/05/06 10:16:47;;;;;;;1.25;0.88;;;20.70;54.40;;;;;;5041685;28;20017;-43
2021/05/06 10:19:16;;;;;;;1.20;0.70;;;20.70;54.50;;;;;;5049729;28;20503;-43
2021/05/06 10:21:42;;;;;;;1.42;0.90;;;20.70;54.50;;;;;;5062169;28;20048;-43
2021/05/06 10:24:07;;;;;;;1.83;0.77;;;20.70;55.40;;;;;;5027758;28;20072;-42
2021/05/06 10:26:33;;;;;;;4.05;1.20;;;20.70;54.60;;;;;;5052055;28;20039;-43
2021/05/06 10:28:58;;;;;;;1.00;0.80;;;20.70;54.80;;;;;;5042657;28;20104;-42
2021/05/06 10:31:24;;;;;;;2.58;0.98;;;20.60;54.70;;;;;;5046669;28;20100;-43
2021/05/06 10:33:50;;;;;;;3.85;1.00;;;20.70;54.40;;;;;;5042502;28;20078;-43
2021/05/06 10:36:15;;;;;;;1.58;1.00;;;20.70;54.60;;;;;;5041182;28;20024;-42
2021/05/06 10:38:42;;;;;;;2.17;0.80;;;20.70;54.80;;;;;;5026160;28;20136;-43
2021/05/06 10:41:26;;;;;;;2.03;0.90;;;20.70;54.90;;;;;;5067114;28;20163;-42
2021/05/06 10:43:52;;;;;;;1.73;1.05;;;20.70;54.80;;;;;;4703944;28;10001026;-41
2021/05/06 10:46:17;;;;;;;4.50;1.30;;;20.70;55.00;;;;;;5065365;28;20055;-40
2021/05/06 10:49:02;;;;;;;3.50;1.27;;;20.70;55.30;;;;;;5055217;28;20033;-41
2021/05/06 10:51:49;;;;;;;1.17;1.00;;;20.80;55.40;;;;;;5058894;28;20036;-40
2021/05/06 10:54:24;;;;;;;3.92;1.10;;;20.80;55.70;;;;;;5030693;28;20033;-44
2021/05/06 10:56:50;;;;;;;3.33;0.95;;;20.80;55.40;;;;;;5055114;28;20090;-43
2021/05/06 10:59:33;;;;;;;1.77;0.98;;;20.80;55.60;;;;;;5055817;28;20116;-43
2021/05/06 11:01:59;;;;;;;1.58;1.10;;;20.80;55.60;;;;;;5059137;28;20526;-44
2021/05/06 11:04:37;;;;;;;1.25;1.00;;;20.80;55.70;;;;;;5065671;28;20024;-41
2021/05/06 11:07:23;;;;;;;3.05;0.98;;;20.90;55.70;;;;;;5055851;28;20115;-43
2021/05/06 11:09:54;;;;;;;2.35;1.23;;;20.90;55.60;;;;;;5055224;28;20566;-44
2021/05/06 11:12:20;;;;;;;2.58;0.82;;;20.90;55.60;;;;;;5055690;28;20561;-43
2021/05/06 11:14:58;;;;;;;5.25;1.00;;;20.90;55.60;;;;;;5056539;28;20075;-39
2021/05/06 11:17:24;;;;;;;2.00;0.90;;;21.00;55.40;;;;;;5060581;28;20062;-44
2021/05/06 11:19:50;;;;;;;1.40;0.95;;;21.20;55.60;;;;;;5059420;28;20033;-44
2021/05/06 11:22:47;;;;;;;0.90;0.88;;;21.40;54.50;;;;;;5055591;28;20044;-43
2021/05/06 11:28:00;;;;;;;1.75;0.93;;;21.70;53.80;;;;;;5064020;28;20058;-45
2021/05/06 11:30:32;;;;;;;2.30;0.90;;;21.70;53.50;;;;;;5059829;28;20032;-44
2021/05/06 11:33:19;;;;;;;1.27;0.82;;;21.70;53.50;;;;;;5047684;28;20411;-46
2021/05/06 11:35:57;;;;;;;1.88;1.13;;;21.90;53.10;;;;;;5056888;28;20032;-46
2021/05/06 11:38:30;;;;;;;3.30;1.27;;;22.00;53.30;;;;;;5068080;28;20052;-45
2021/05/06 11:40:59;;;;;;;3.63;1.10;;;21.90;52.60;;;;;;5058447;28;20025;-45
2021/05/06 11:43:24;;;;;;;4.85;0.93;;;22.00;52.50;;;;;;5067098;28;20043;-44
2021/05/06 11:46:01;;;;;;;2.22;0.90;;;21.90;53.20;;;;;;5063868;28;20040;-46
2021/05/06 11:48:36;;;;;;;1.38;0.85;;;21.90;52.70;;;;;;5051445;28;20114;-43
2021/05/06 11:51:02;;;;;;;1.05;0.90;;;21.80;52.60;;;;;;5061927;28;20036;-46
2021/05/06 11:53:28;;;;;;;1.50;1.02;;;21.80;52.60;;;;;;5028973;28;20506;-46
2021/05/06 11:55:54;;;;;;;1.98;1.25;;;21.70;52.60;;;;;;5036831;28;20174;-45
2021/05/06 11:58:28;;;;;;;4.10;1.30;;;21.70;52.70;;;;;;5054535;28;20025;-43
2021/05/06 12:00:54;;;;;;;1.20;0.82;;;21.70;52.60;;;;;;5041226;28;20028;-42
2021/05/06 12:03:20;;;;;;;1.85;0.90;;;21.90;52.20;;;;;;5046509;28;20021;-45
2021/05/06 12:05:54;;;;;;;1.20;0.90;;;22.00;51.70;;;;;;5061154;28;20580;-47
2021/05/06 12:08:22;;;;;;;1.50;1.02;;;22.00;51.80;;;;;;5062570;28;20024;-32
2021/05/06 12:10:47;;;;;;;1.95;0.98;;;21.90;52.40;;;;;;5063165;28;20028;-33
2021/05/06 12:13:14;;;;;;;2.33;1.10;;;22.10;51.30;;;;;;5058492;28;20033;-32
2021/05/06 12:15:40;;;;;;;1.90;0.90;;;22.10;51.10;;;;;;5058519;28;20151;-35
2021/05/06 12:18:20;;;;;;;1.48;0.95;;;22.10;51.30;;;;;;5040774;28;20107;-38
2021/05/06 12:20:54;;;;;;;1.85;1.00;;;22.00;51.30;;;;;;5059310;28;20372;-34
2021/05/06 12:23:19;;;;;;;2.25;1.30;;;22.00;51.40;;;;;;5052346;28;20040;-35
2021/05/06 12:25:45;;;;;;;3.22;1.25;;;22.10;51.80;;;;;;5067891;28;20045;-33
2021/05/06 12:28:10;;;;;;;2.00;1.08;;;22.10;50.90;;;;;;5055642;28;20059;-38
2021/05/06 12:30:36;;;;;;;1.38;0.80;;;22.20;50.70;;;;;;5039050;28;20036;-34
2021/05/06 12:33:02;;;;;;;1.67;1.08;;;22.20;50.50;;;;;;5044571;28;20046;-34
2021/05/06 12:35:27;;;;;;;1.65;0.70;;;22.30;51.00;;;;;;5067563;28;20162;-30
2021/05/06 12:37:53;;;;;;;3.35;1.02;;;22.30;50.00;;;;;;5057654;28;20112;-31
2021/05/06 12:40:19;;;;;;;2.17;0.82;;;22.10;50.60;;;;;;5065204;28;20036;-32
2021/05/06 12:42:44;;;;;;;1.33;0.90;;;22.10;50.40;;;;;;5063650;28;20431;-33
2021/05/06 12:45:13;;;;;;;1.98;1.10;;;22.30;50.00;;;;;;5064287;28;20055;-43
2021/05/06 12:47:51;;;;;;;1.60;1.05;;;22.30;50.00;;;;;;5064006;28;20021;-46
2021/05/06 12:50:18;;;;;;;1.90;1.15;;;22.30;49.90;;;;;;5062356;28;20017;-46
2021/05/06 12:52:45;;;;;;;1.73;1.05;;;22.40;49.60;;;;;;5061855;28;20023;-44
2021/05/06 12:55:17;;;;;;;0.93;0.80;;;22.30;50.00;;;;;;5033070;28;20502;-46
2021/05/06 12:57:43;;;;;;;2.38;1.30;;;22.10;50.40;;;;;;5062050;28;20024;-44
2021/05/06 13:00:22;;;;;;;1.40;1.00;;;22.10;50.90;;;;;;5059969;28;20479;-44
2021/05/06 13:02:47;;;;;;;5.38;1.00;;;22.10;50.10;;;;;;5060411;28;20445;-41
2021/05/06 13:05:34;;;;;;;1.65;0.90;;;22.00;50.60;;;;;;5061286;28;20033;-43
2021/05/06 13:08:00;;;;;;;1.35;0.90;;;22.00;50.20;;;;;;5061124;28;20478;-42
2021/05/06 13:10:45;;;;;;;2.99;1.20;;;22.00;50.30;;;;;;5006346;28;10000868;-45
2021/05/06 13:13:12;;;;;;;2.53;1.10;;;22.10;50.50;;;;;;5050344;28;20279;-45
2021/05/06 13:15:53;;;;;;;2.60;1.17;;;22.20;49.90;;;;;;5059524;28;20029;-44
2021/05/06 13:18:19;;;;;;;3.55;1.10;;;22.20;49.80;;;;;;5047796;28;20033;-46
2021/05/06 13:20:45;;;;;;;1.42;1.00;;;22.20;49.70;;;;;;5061716;28;20029;-44
2021/05/06 13:23:12;;;;;;;2.20;1.00;;;22.10;50.20;;;;;;5058005;28;20036;-42
2021/05/06 13:25:44;;;;;;;2.40;1.20;;;22.10;50.40;;;;;;5062706;28;20099;-44
2021/05/06 13:28:39;;;;;;;1.23;0.95;;;22.00;50.00;;;;;;5060735;28;20083;-46
2021/05/06 13:31:18;;;;;;;2.13;1.38;;;22.10;50.10;;;;;;5066098;28;20210;-45
2021/05/06 13:33:46;;;;;;;1.83;1.10;;;22.10;50.10;;;;;;5070532;28;20027;-47
2021/05/06 13:36:13;;;;;;;1.95;1.50;;;22.10;50.20;;;;;;5056953;28;20025;-45
2021/05/06 13:39:08;;;;;;;4.22;1.30;;;22.00;50.00;;;;;;5049227;28;20060;-44
2021/05/06 13:41:47;;;;;;;2.63;1.20;;;22.10;50.10;;;;;;5057032;28;20035;-49
2021/05/06 13:44:15;;;;;;;2.67;1.20;;;22.10;50.10;;;;;;5063439;28;20024;-42
2021/05/06 13:46:54;;;;;;;1.65;1.00;;;22.10;51.60;;;;;;5068267;28;20499;-45
2021/05/06 13:49:24;;;;;;;3.13;0.98;;;22.10;50.60;;;;;;5040716;28;20057;-45
2021/05/06 13:51:50;;;;;;;2.13;1.20;;;22.10;50.40;;;;;;5047307;28;20056;-43
2021/05/06 13:54:17;;;;;;;3.78;1.27;;;22.10;50.20;;;;;;5046528;28;20447;-43
2021/05/06 13:56:42;;;;;;;2.83;1.33;;;22.00;50.40;;;;;;5051034;28;20107;-45
2021/05/06 13:59:08;;;;;;;2.33;1.20;;;22.00;50.20;;;;;;5052809;28;20108;-44
2021/05/06 14:01:34;;;;;;;2.58;1.35;;;22.00;50.40;;;;;;5056852;28;20047;-43
2021/05/06 14:03:59;;;;;;;3.22;1.05;;;22.10;50.30;;;;;;5045269;28;20040;-42
2021/05/06 14:06:25;;;;;;;1.98;1.13;;;22.10;50.40;;;;;;5061250;28;20032;-45
2021/05/06 14:08:50;;;;;;;3.00;1.27;;;22.20;50.00;;;;;;5061547;28;20539;-43
2021/05/06 14:11:16;;;;;;;2.88;1.15;;;22.20;50.50;;;;;;5066908;28;20031;-44
2021/05/06 14:13:42;;;;;;;1.60;1.30;;;22.20;50.60;;;;;;5069182;28;20029;-45
2021/05/06 14:16:08;;;;;;;2.88;1.20;;;22.20;50.20;;;;;;5068536;28;20109;-44
2021/05/06 14:18:34;;;;;;;1.92;1.00;;;22.20;50.40;;;;;;5062764;28;20507;-42
2021/05/06 14:21:02;;;;;;;2.78;1.20;;;22.20;50.30;;;;;;5061913;28;20028;-41
2021/05/06 14:23:28;;;;;;;6.75;1.20;;;22.20;50.40;;;;;;5055120;28;20031;-42
2021/05/06 14:25:54;;;;;;;2.58;0.95;;;22.30;50.50;;;;;;5068162;28;20041;-42
2021/05/06 14:28:20;;;;;;;2.90;1.15;;;22.30;50.50;;;;;;5068414;28;20458;-46
2021/05/06 14:30:45;;;;;;;2.20;1.33;;;22.30;50.50;;;;;;5059101;28;20024;-43
2021/05/06 14:33:11;;;;;;;2.58;1.05;;;22.20;50.50;;;;;;5060285;28;20039;-45
2021/05/06 14:35:38;;;;;;;1.90;1.00;;;22.20;50.50;;;;;;5063662;28;20031;-44
2021/05/06 14:38:07;;;;;;;3.03;1.10;;;22.20;50.30;;;;;;5068551;28;20048;-40
2021/05/06 14:40:33;;;;;;;1.98;1.05;;;22.20;50.60;;;;;;5056125;28;20033;-45
2021/05/06 14:42:58;;;;;;;2.80;1.02;;;22.20;51.10;;;;;;5061432;28;20027;-46
2021/05/06 14:45:24;;;;;;;1.15;0.80;;;22.20;51.00;;;;;;5048537;28;20028;-44
2021/05/06 14:47:50;;;;;;;5.88;1.38;;;22.10;50.80;;;;;;5067133;28;20025;-46
2021/05/06 14:50:15;;;;;;;1.63;1.23;;;22.20;50.60;;;;;;5065049;28;20032;-44
2021/05/06 14:52:41;;;;;;;2.42;1.00;;;22.10;51.10;;;;;;5064641;28;20418;-43
2021/05/06 14:55:10;;;;;;;1.42;1.10;;;22.10;50.70;;;;;;5059383;28;20021;-44
2021/05/06 14:57:36;;;;;;;5.20;1.30;;;22.10;50.90;;;;;;5043747;28;20094;-43
2021/05/06 15:00:04;;;;;;;5.43;1.60;;;22.00;51.00;;;;;;5037983;28;20536;-43
2021/05/06 15:02:30;;;;;;;5.35;1.38;;;22.10;50.90;;;;;;5050126;28;20756;-45
2021/05/06 15:04:55;;;;;;;2.70;1.20;;;22.10;50.80;;;;;;5067867;28;20031;-43
2021/05/06 15:07:21;;;;;;;2.47;1.20;;;22.10;50.80;;;;;;5057297;28;20454;-44
2021/05/06 15:09:46;;;;;;;4.07;1.60;;;22.10;51.10;;;;;;5056468;28;20107;-45
2021/05/06 15:12:12;;;;;;;1.90;1.30;;;22.00;50.90;;;;;;5059381;28;20032;-43
2021/05/06 15:14:37;;;;;;;2.03;1.25;;;22.10;50.70;;;;;;5036806;28;20074;-44
2021/05/06 15:17:03;;;;;;;3.40;1.33;;;22.00;50.90;;;;;;5050066;28;20139;-44
2021/05/06 15:19:29;;;;;;;2.30;1.80;;;22.10;50.60;;;;;;5065949;28;20028;-43
2021/05/06 15:21:54;;;;;;;2.67;1.45;;;22.10;50.80;;;;;;5057201;28;20060;-44
2021/05/06 15:24:20;;;;;;;3.17;1.20;;;22.00;50.90;;;;;;5059150;28;20032;-44
2021/05/06 15:26:45;;;;;;;2.33;1.50;;;22.00;50.80;;;;;;5067622;28;20443;-45
2021/05/06 15:29:11;;;;;;;1.33;1.02;;;22.10;50.80;;;;;;5059278;28;20135;-43
2021/05/06 15:31:37;;;;;;;2.08;1.10;;;22.00;50.90;;;;;;5063410;28;20032;-44
2021/05/06 15:34:03;;;;;;;1.75;1.27;;;22.00;51.00;;;;;;5069029;28;20498;-44
2021/05/06 15:36:30;;;;;;;2.10;0.93;;;22.00;51.10;;;;;;5046868;28;20073;-45
2021/05/06 15:39:00;;;;;;;2.10;1.80;;;21.90;51.20;;;;;;5066824;28;20041;-43
2021/05/06 15:41:25;;;;;;;1.40;1.10;;;22.00;51.20;;;;;;5065618;28;20486;-43
2021/05/06 15:43:51;;;;;;;2.10;1.55;;;22.00;51.20;;;;;;5033237;28;20040;-43
2021/05/06 15:46:17;;;;;;;2.00;1.17;;;21.90;51.60;;;;;;5056413;28;20041;-43
2021/05/06 15:48:42;;;;;;;1.92;1.02;;;21.80;51.70;;;;;;5057286;28;20024;-43
2021/05/06 15:51:08;;;;;;;1.80;1.15;;;21.80;51.80;;;;;;5064272;28;20526;-43
2021/05/06 15:53:34;;;;;;;4.18;1.55;;;21.80;51.90;;;;;;5050474;28;20070;-43
2021/05/06 15:56:00;;;;;;;3.95;1.30;;;21.70;51.90;;;;;;5063381;28;20036;-43
2021/05/06 15:58:25;;;;;;;1.73;1.10;;;21.80;52.10;;;;;;5055602;28;20082;-43
2021/05/06 16:00:59;;;;;;;2.75;1.00;;;21.80;52.10;;;;;;5063628;28;20036;-42
2021/05/06 16:03:26;;;;;;;1.70;1.10;;;21.80;52.00;;;;;;5063478;28;20044;-42
2021/05/06 16:05:54;;;;;;;2.20;1.20;;;21.70;52.10;;;;;;5064783;28;20048;-43
2021/05/06 16:08:23;;;;;;;4.25;1.10;;;21.70;52.20;;;;;;5066910;28;20511;-42
2021/05/06 16:10:50;;;;;;;5.45;1.48;;;21.70;51.90;;;;;;5070672;28;20379;-42
2021/05/06 16:13:17;;;;;;;1.60;1.02;;;21.70;52.00;;;;;;5064570;28;20025;-43
2021/05/06 16:15:42;;;;;;;1.95;1.20;;;21.70;52.10;;;;;;5064631;28;20032;-43
2021/05/06 16:18:08;;;;;;;1.70;1.00;;;21.70;52.10;;;;;;5066482;28;20031;-42